createdAt,value
2022-12-19T00:00:02.288Z,102.20
2022-12-19T00:03:15.333Z,102.60
2022-12-19T00:06:02.230Z,105.00
2022-12-19T00:08:46.842Z,104.20
2022-12-19T00:11:30.127Z,97.60
2022-12-19T00:14:12.865Z,100.70
2022-12-19T00:16:55.612Z,98.20
2022-12-19T00:19:38.657Z,107.90
2022-12-19T00:22:21.433Z,91.20
2022-12-19T00:25:07.653Z,96.60
2022-12-19T00:27:51.170Z,96.80
2022-12-19T00:30:33.839Z,102.80
2022-12-19T00:33:16.736Z,108.80
2022-12-19T00:38:48.297Z,100.50
2022-12-19T00:41:33.938Z,114.20
2022-12-19T00:44:16.817Z,106.50
2022-12-19T00:49:42.367Z,112.60
2022-12-19T00:52:26.568Z,103.60
2022-12-19T00:55:19.257Z,104.80
2022-12-19T00:58:02.766Z,102.10
2022-12-19T01:00:45.665Z,98.90
2022-12-19T01:03:28.582Z,98.90
2022-12-19T01:06:13.133Z,111.30
2022-12-19T01:08:57.035Z,83.50
2022-12-19T01:11:58.427Z,106.80
2022-12-19T01:14:41.321Z,98.30
2022-12-19T01:20:09.808Z,114.90
2022-12-19T01:22:52.519Z,102.10
2022-12-19T01:25:36.702Z,108.30
2022-12-19T01:28:21.832Z,101.30
2022-12-19T01:31:06.778Z,96.20
2022-12-19T01:33:52.094Z,98.50
2022-12-19T01:36:39.699Z,101.90
2022-12-19T01:39:23.101Z,101.30
2022-12-19T01:42:15.559Z,101.40
2022-12-19T01:45:13.348Z,114.40
2022-12-19T01:48:11.488Z,106.10
2022-12-19T01:51:02.003Z,105.60
2022-12-19T01:53:51.001Z,97.70
2022-12-19T01:56:40.719Z,110.90
2022-12-19T01:59:31.589Z,100.40
2022-12-19T02:02:30.688Z,104.80
2022-12-19T02:05:13.601Z,99.80
2022-12-19T02:07:57.507Z,116.70
2022-12-19T02:10:40.325Z,106.00
2022-12-19T02:16:16.650Z,111.90
2022-12-19T02:19:39.181Z,101.10
2022-12-19T02:22:49.654Z,102.90
2022-12-19T02:26:01.137Z,106.90
2022-12-19T02:29:02.719Z,98.80
2022-12-19T02:34:44.695Z,110.60
2022-12-19T02:37:34.651Z,91.40
2022-12-19T02:40:28.397Z,105.50
2022-12-19T02:43:15.339Z,120.80
2022-12-19T02:46:01.166Z,94.70
2022-12-19T02:48:47.238Z,103.30
2022-12-19T02:51:32.798Z,92.60
2022-12-19T02:54:17.248Z,95.50
2022-12-19T02:57:32.304Z,106.20
2022-12-19T03:00:20.638Z,94.60
2022-12-19T03:03:19.039Z,94.00
2022-12-19T03:06:05.745Z,91.90
2022-12-19T03:09:04.031Z,92.10
2022-12-19T03:11:52.225Z,89.90
2022-12-19T03:14:37.567Z,100.00
2022-12-19T03:17:20.748Z,83.20
2022-12-19T03:20:46.082Z,87.50
2022-12-19T03:23:30.611Z,86.30
2022-12-19T03:26:19.375Z,94.70
2022-12-19T03:29:18.875Z,95.90
2022-12-19T03:32:10.754Z,88.50
2022-12-19T03:35:03.029Z,94.70
2022-12-19T03:37:49.081Z,86.40
2022-12-19T03:40:33.939Z,89.40
2022-12-19T03:43:24.611Z,87.90
2022-12-19T03:46:23.068Z,83.40
2022-12-19T03:49:06.204Z,90.80
2022-12-19T03:52:01.533Z,89.00
2022-12-19T03:54:59.568Z,80.90
2022-12-19T03:57:58.743Z,86.10
2022-12-19T04:00:47.528Z,85.10
2022-12-19T04:03:34.187Z,73.70
2022-12-19T04:06:17.657Z,87.20
2022-12-19T04:09:01.923Z,87.30
2022-12-19T04:11:53.008Z,82.90
2022-12-19T04:14:38.831Z,92.40
2022-12-19T04:17:49.772Z,87.50
2022-12-19T04:20:37.361Z,85.80
2022-12-19T04:23:31.137Z,77.50
2022-12-19T04:26:17.040Z,81.10
2022-12-19T04:29:03.822Z,83.30
2022-12-19T04:31:48.113Z,73.50
2022-12-19T04:34:32.938Z,78.70
2022-12-19T04:37:15.989Z,80.60
2022-12-19T04:40:00.723Z,82.70
2022-12-19T04:42:43.781Z,81.60
2022-12-19T04:45:27.091Z,78.50
2022-12-19T04:50:53.401Z,75.50
2022-12-19T04:53:36.500Z,74.50
2022-12-19T04:56:19.648Z,77.00
2022-12-19T04:59:03.242Z,76.60
2022-12-19T05:01:46.286Z,79.70
2022-12-19T05:04:29.308Z,70.10
2022-12-19T05:09:56.300Z,75.70
2022-12-19T05:12:41.310Z,74.70
2022-12-19T05:15:26.336Z,70.90
2022-12-19T05:18:10.295Z,75.30
2022-12-19T05:20:53.281Z,70.70
2022-12-19T05:23:36.190Z,75.40
2022-12-19T05:26:19.843Z,74.80
2022-12-19T05:29:03.935Z,71.70
2022-12-19T05:31:47.554Z,71.90
2022-12-19T05:34:30.634Z,73.70
2022-12-19T05:37:13.812Z,80.30
2022-12-19T05:40:01.419Z,77.30
2022-12-19T05:42:45.491Z,77.20
2022-12-19T05:45:32.801Z,74.40
2022-12-19T05:48:17.728Z,89.80
2022-12-19T05:51:02.610Z,83.50
2022-12-19T05:53:50.428Z,76.50
2022-12-19T05:56:37.920Z,90.90
2022-12-19T05:59:21.190Z,86.40
2022-12-19T06:02:13.577Z,75.70
2022-12-19T06:04:57.111Z,80.60
2022-12-19T06:07:39.952Z,79.60
2022-12-19T06:13:05.425Z,82.00
2022-12-19T06:18:32.259Z,74.60
2022-12-19T06:21:23.297Z,87.30
2022-12-19T06:24:08.460Z,89.80
2022-12-19T06:26:51.461Z,78.40
2022-12-19T06:29:36.090Z,74.90
2022-12-19T06:32:19.155Z,88.60
2022-12-19T06:35:04.570Z,85.00
2022-12-19T06:37:56.596Z,80.70
2022-12-19T06:41:03.976Z,78.60
2022-12-19T06:43:51.895Z,81.40
2022-12-19T06:46:40.984Z,81.20
2022-12-19T06:49:24.849Z,85.50
2022-12-19T06:54:52.338Z,83.00
2022-12-19T07:00:48.640Z,75.70
2022-12-19T07:03:39.071Z,74.30
2022-12-19T07:06:23.605Z,88.70
2022-12-19T07:09:10.705Z,78.40
2022-12-19T07:12:10.224Z,77.80
2022-12-19T07:15:00.195Z,84.70
2022-12-19T07:17:46.572Z,81.30
2022-12-19T07:20:32.246Z,84.60
2022-12-19T07:26:35.009Z,83.90
2022-12-19T07:29:22.798Z,74.80
2022-12-19T07:32:27.049Z,84.90
2022-12-19T07:39:02.136Z,70.20
2022-12-19T07:42:32.586Z,67.00
2022-12-19T07:49:19.704Z,89.00
2022-12-19T07:52:09.743Z,74.20
2022-12-19T07:54:56.668Z,80.30
2022-12-19T07:57:43.892Z,90.30
2022-12-19T08:00:29.123Z,80.00
2022-12-19T08:03:17.299Z,76.30
2022-12-19T08:06:11.292Z,68.80
2022-12-19T08:09:00.607Z,68.00
2022-12-19T08:11:53.432Z,75.10
2022-12-19T08:14:57.474Z,70.40
2022-12-19T08:17:51.876Z,70.10
2022-12-19T08:20:55.136Z,67.90
2022-12-19T08:23:41.647Z,67.60
2022-12-19T08:26:40.630Z,74.40
2022-12-19T08:29:30.639Z,73.70
2022-12-19T08:32:23.003Z,61.40
2022-12-19T08:35:11.947Z,68.80
2022-12-19T08:38:03.487Z,69.10
2022-12-19T08:40:53.093Z,68.00
2022-12-19T08:43:36.391Z,64.50
2022-12-19T08:46:20.159Z,65.70
2022-12-19T08:49:03.052Z,71.30
2022-12-19T08:51:46.790Z,67.80
2022-12-19T08:54:29.719Z,73.50
2022-12-19T08:59:55.322Z,62.60
2022-12-19T09:02:39.401Z,66.40
2022-12-19T09:06:03.174Z,65.90
2022-12-19T09:08:31.427Z,63.70
2022-12-19T09:11:17.102Z,70.60
2022-12-19T09:14:00.102Z,70.90
2022-12-19T09:16:43.121Z,73.90
2022-12-19T09:19:26.149Z,77.10
2022-12-19T09:22:09.605Z,70.20
2022-12-19T09:24:52.555Z,72.80
2022-12-19T09:27:53.690Z,67.50
2022-12-19T09:30:38.664Z,73.40
2022-12-19T09:33:21.629Z,66.30
2022-12-19T09:36:06.636Z,60.50
2022-12-19T09:38:50.176Z,68.30
2022-12-19T09:41:55.601Z,59.50
2022-12-19T09:45:01.585Z,69.70
2022-12-19T09:47:49.584Z,58.70
2022-12-19T09:50:50.925Z,62.10
2022-12-19T09:53:58.945Z,57.80
2022-12-19T09:56:46.282Z,61.50
2022-12-19T10:00:12.834Z,59.70
2022-12-19T10:03:22.912Z,64.80
2022-12-19T10:07:06.883Z,69.10
2022-12-19T10:11:08.252Z,58.70
2022-12-19T10:12:50.807Z,68.10
2022-12-19T10:16:01.121Z,62.70
2022-12-19T10:18:57.193Z,53.10
2022-12-19T10:22:19.627Z,67.60
2022-12-19T10:25:12.364Z,64.60
2022-12-19T10:28:20.112Z,57.50
2022-12-19T10:31:22.935Z,53.30
2022-12-19T10:34:30.244Z,56.20
2022-12-19T10:37:31.461Z,50.20
2022-12-19T10:40:44.125Z,48.30
2022-12-19T10:43:44.371Z,56.90
2022-12-19T10:46:42.019Z,58.00
2022-12-19T10:49:28.764Z,61.70
2022-12-19T10:52:13.301Z,56.90
2022-12-19T10:54:56.104Z,55.80
2022-12-19T11:00:22.548Z,58.50
2022-12-19T11:03:35.754Z,63.20
2022-12-19T11:06:34.910Z,58.60
2022-12-19T11:09:29.275Z,57.70
2022-12-19T11:16:06.761Z,60.90
2022-12-19T11:19:47.182Z,58.90
2022-12-19T11:26:24.791Z,63.40
2022-12-19T11:29:47.028Z,54.40
2022-12-19T11:30:46.363Z,54.40
2022-12-19T11:34:16.995Z,55.50
2022-12-19T11:37:22.163Z,61.20
2022-12-19T11:40:36.180Z,72.20
2022-12-19T11:43:47.158Z,56.60
2022-12-19T11:47:13.663Z,65.10
2022-12-19T11:50:04.164Z,68.00
2022-12-19T11:53:19.444Z,57.80
2022-12-19T11:56:15.791Z,59.40
2022-12-19T11:59:05.646Z,45.10
2022-12-19T12:02:10.164Z,56.70
2022-12-19T12:05:05.283Z,42.90
2022-12-19T12:09:42.679Z,50.00
2022-12-19T12:16:46.620Z,53.70
2022-12-19T12:23:58.518Z,45.90
2022-12-19T12:31:04.289Z,46.70
2022-12-19T12:31:17.337Z,51.30
2022-12-19T12:31:51.153Z,56.00
2022-12-19T12:32:05.069Z,72.00
2022-12-19T12:35:15.278Z,52.90
2022-12-19T12:39:42.956Z,48.20
2022-12-19T12:42:47.254Z,52.30
2022-12-19T12:45:40.474Z,78.20
2022-12-19T12:48:47.842Z,56.00
2022-12-19T12:51:33.698Z,47.10
2022-12-19T12:54:17.987Z,49.10
2022-12-19T12:57:01.694Z,45.40
2022-12-19T12:59:46.362Z,47.90
2022-12-19T13:02:30.244Z,47.50
2022-12-19T13:05:22.540Z,60.60
2022-12-19T13:08:46.595Z,46.00
2022-12-19T13:11:47.914Z,50.40
2022-12-19T13:14:39.698Z,51.00
2022-12-19T13:17:48.921Z,48.90
2022-12-19T13:20:42.727Z,49.50
2022-12-19T13:23:38.194Z,48.50
2022-12-19T13:26:44.708Z,48.90
2022-12-19T13:29:51.184Z,44.90
2022-12-19T13:32:53.879Z,42.70
2022-12-19T13:37:09.849Z,46.90
2022-12-19T13:40:02.199Z,45.20
2022-12-19T13:42:20.420Z,52.90
2022-12-19T13:45:12.791Z,45.20
2022-12-19T13:47:58.490Z,50.30
2022-12-19T13:50:42.997Z,51.50
2022-12-19T13:53:28.393Z,50.30
2022-12-19T13:56:17.903Z,55.30
2022-12-19T13:59:04.463Z,48.40
2022-12-19T14:01:47.779Z,49.20
2022-12-19T14:04:33.378Z,51.10
2022-12-19T14:07:36.034Z,51.70
2022-12-19T14:11:31.747Z,53.30
2022-12-19T14:14:01.938Z,49.00
2022-12-19T14:16:48.038Z,48.20
2022-12-19T14:22:26.269Z,52.40
2022-12-19T14:28:14.292Z,51.40
2022-12-19T14:28:29.135Z,56.20
2022-12-19T14:31:16.741Z,65.50
2022-12-19T14:39:45.833Z,43.20
2022-12-19T14:52:35.251Z,48.90
2022-12-19T14:52:51.159Z,79.70
2022-12-19T14:54:25.522Z,53.70
2022-12-19T14:56:15.943Z,47.90
2022-12-19T14:58:52.175Z,45.70
2022-12-19T15:01:39.234Z,60.50
2022-12-19T15:04:53.319Z,50.70
2022-12-19T15:07:32.808Z,48.60
2022-12-19T15:11:05.552Z,46.80
2022-12-19T15:14:54.922Z,44.90
2022-12-19T15:16:35.025Z,57.10
2022-12-19T15:19:17.929Z,44.50
2022-12-19T15:24:43.761Z,48.50
2022-12-19T15:27:26.519Z,49.30
2022-12-19T15:33:03.473Z,48.40
2022-12-19T15:38:29.169Z,51.40
2022-12-19T15:44:05.591Z,46.90
2022-12-19T15:46:49.761Z,48.30
2022-12-19T15:49:35.194Z,45.90
2022-12-19T15:52:20.423Z,47.50
2022-12-19T15:55:03.367Z,52.70
2022-12-19T15:57:51.896Z,79.50
2022-12-19T16:00:36.813Z,49.40
2022-12-19T16:03:23.480Z,49.40
2022-12-19T16:06:13.635Z,50.50
2022-12-19T16:08:56.659Z,45.70
2022-12-19T16:11:39.449Z,57.40
2022-12-19T16:17:10.708Z,51.40
2022-12-19T16:19:53.682Z,57.50
2022-12-19T16:22:38.863Z,54.20
2022-12-19T16:25:33.350Z,54.20
2022-12-19T16:28:34.143Z,55.60
2022-12-19T16:31:23.369Z,52.20
2022-12-19T16:34:16.484Z,55.70
2022-12-19T16:36:59.234Z,56.10
2022-12-19T16:42:25.000Z,47.70
2022-12-19T16:45:20.472Z,56.80
2022-12-19T16:48:11.013Z,51.60
2022-12-19T16:50:53.768Z,51.20
2022-12-19T16:53:36.743Z,54.40
2022-12-19T16:56:50.578Z,47.20
2022-12-19T16:59:37.599Z,48.40
2022-12-19T17:02:41.189Z,53.10
2022-12-19T17:05:30.489Z,47.80
2022-12-19T17:08:13.742Z,53.00
2022-12-19T17:10:56.501Z,57.50
2022-12-19T17:16:21.932Z,52.50
2022-12-19T17:21:48.473Z,50.40
2022-12-19T17:24:31.164Z,54.30
2022-12-19T17:27:14.351Z,57.20
2022-12-19T17:29:57.091Z,58.10
2022-12-19T17:32:40.252Z,61.00
2022-12-19T17:35:28.201Z,58.90
2022-12-19T17:38:16.740Z,55.00
2022-12-19T17:40:59.777Z,57.90
2022-12-19T17:43:43.645Z,51.90
2022-12-19T17:46:26.562Z,52.80
2022-12-19T17:49:16.601Z,58.50
2022-12-19T17:52:00.189Z,58.90
2022-12-19T17:54:43.140Z,59.40
2022-12-19T17:57:26.965Z,58.70
2022-12-19T18:00:10.707Z,67.90
2022-12-19T18:02:56.604Z,56.80
2022-12-19T18:05:39.762Z,61.20
2022-12-19T18:08:33.373Z,58.40
2022-12-19T18:11:23.339Z,58.00
2022-12-19T18:14:06.074Z,67.10
2022-12-19T18:16:50.692Z,57.70
2022-12-19T18:19:36.177Z,61.70
2022-12-19T18:22:19.212Z,66.40
2022-12-19T18:25:03.853Z,56.50
2022-12-19T18:27:46.959Z,59.60
2022-12-19T18:30:30.132Z,59.60
2022-12-19T18:33:18.636Z,57.30
2022-12-19T18:36:01.410Z,57.30
2022-12-19T18:41:27.379Z,60.10
2022-12-19T18:46:53.310Z,54.70
2022-12-19T18:49:37.692Z,58.10
2022-12-19T18:52:22.462Z,59.00
2022-12-19T18:55:19.797Z,60.70
2022-12-19T18:58:02.558Z,61.30
2022-12-19T19:03:32.498Z,64.00
2022-12-19T19:06:20.430Z,60.70
2022-12-19T19:09:03.645Z,64.20
2022-12-19T19:12:15.677Z,59.80
2022-12-19T19:14:58.539Z,64.50
2022-12-19T19:20:27.313Z,57.30
2022-12-19T19:23:12.562Z,54.20
2022-12-19T19:25:56.791Z,59.90
2022-12-19T19:28:39.888Z,60.00
2022-12-19T19:31:27.030Z,60.90
2022-12-19T19:34:23.877Z,57.70
2022-12-19T19:37:10.914Z,58.60
2022-12-19T19:39:53.756Z,59.60
2022-12-19T19:45:19.246Z,59.90
2022-12-19T19:48:04.158Z,61.40
2022-12-19T19:50:47.020Z,55.10
2022-12-19T19:56:12.584Z,57.60
2022-12-19T19:59:00.009Z,59.00
2022-12-19T20:01:43.249Z,70.30
2022-12-19T20:04:26.959Z,55.70
2022-12-19T20:07:10.794Z,53.10
2022-12-19T20:09:54.226Z,48.20
2022-12-19T20:12:36.898Z,55.30
2022-12-19T20:15:20.829Z,57.10
2022-12-19T20:18:03.645Z,55.60
2022-12-19T20:23:30.272Z,55.50
2022-12-19T20:26:17.047Z,50.90
2022-12-19T20:28:59.831Z,51.60
2022-12-19T20:31:42.719Z,56.50
2022-12-19T20:34:26.146Z,56.70
2022-12-19T20:37:09.054Z,54.90
2022-12-19T20:39:53.298Z,49.20
2022-12-19T20:42:36.095Z,51.70
2022-12-19T20:48:01.462Z,55.10
2022-12-19T20:50:46.322Z,53.70
2022-12-19T20:53:29.345Z,57.80
2022-12-19T20:56:15.613Z,47.70
2022-12-19T20:58:58.386Z,52.80
2022-12-19T21:04:24.142Z,50.90
2022-12-19T21:07:07.006Z,49.20
2022-12-19T21:09:51.194Z,48.70
2022-12-19T21:12:33.941Z,56.70
2022-12-19T21:15:16.960Z,50.80
2022-12-19T21:18:01.566Z,51.20
2022-12-19T21:20:44.487Z,48.70
2022-12-19T21:23:27.923Z,46.90
2022-12-19T21:26:11.236Z,50.80
2022-12-19T21:28:54.971Z,54.90
2022-12-19T21:31:37.815Z,47.90
2022-12-19T21:34:21.735Z,56.60
2022-12-19T21:37:04.478Z,54.40
2022-12-19T21:42:30.047Z,51.30
2022-12-19T21:47:55.655Z,47.60
2022-12-19T21:50:38.381Z,55.00
2022-12-19T21:53:21.131Z,51.80
2022-12-19T21:56:19.055Z,45.20
2022-12-19T21:59:04.820Z,52.90
2022-12-19T22:01:47.751Z,51.80
2022-12-19T22:04:31.493Z,51.90
2022-12-19T22:07:14.227Z,52.40
2022-12-19T22:09:56.991Z,49.10
2022-12-19T22:12:40.008Z,52.40
2022-12-19T22:15:22.836Z,53.00
2022-12-19T22:20:48.358Z,49.40
2022-12-19T22:23:31.748Z,50.30
2022-12-19T22:26:17.572Z,57.00
2022-12-19T22:29:00.576Z,49.80
2022-12-19T22:31:44.527Z,51.90
2022-12-19T22:34:28.473Z,50.60
2022-12-19T22:37:11.210Z,49.40
2022-12-19T22:42:37.053Z,52.10
2022-12-19T22:45:19.791Z,47.60
2022-12-19T22:48:02.527Z,50.40
2022-12-19T22:50:47.212Z,51.80
2022-12-19T22:53:30.393Z,51.10
2022-12-19T22:56:19.936Z,51.10
2022-12-19T22:59:06.649Z,51.90
2022-12-19T23:01:49.542Z,53.40
2022-12-19T23:04:32.490Z,49.50
2022-12-19T23:09:58.935Z,47.60
2022-12-19T23:15:24.458Z,47.90
2022-12-19T23:20:49.976Z,51.30
2022-12-19T23:26:19.309Z,46.80
2022-12-19T23:29:05.684Z,47.50
2022-12-19T23:31:48.446Z,50.50
2022-12-19T23:37:14.118Z,47.90
2022-12-19T23:39:57.293Z,45.20
2022-12-19T23:42:40.011Z,50.90
2022-12-19T23:45:22.757Z,53.90
2022-12-19T23:51:07.579Z,42.00
2022-12-19T23:53:50.444Z,50.70
2022-12-19T23:59:15.957Z,45.90
